Time,TemperatureF,DewpointF,PressureIn,WindDirection,WindDirectionDegrees,WindSpeedMPH,WindSpeedGustMPH,Humidity,HourlyPrecipIn,Conditions,Clouds,dailyrainin,SoftwareType,DateUTC
2013-01-16 00:00:00,52.9,52.3,29.86,SE,143,0.0,5.0,98,0.03,,,0.26,meteohub,2013-01-16 05:00:00,
2013-01-16 00:02:00,52.5,52.0,29.86,ENE,73,0.0,8.0,98,0.04,,,0.26,meteohub,2013-01-16 05:02:00,
2013-01-16 00:07:00,52.5,51.6,29.86,SE,133,3.0,8.0,97,0.04,,,0.27,meteohub,2013-01-16 05:07:00,
2013-01-16 00:12:00,52.5,52.0,29.86,NE,45,0.0,8.0,98,0.04,,,0.28,meteohub,2013-01-16 05:12:00,
2013-01-16 00:17:00,52.5,52.0,29.86,SE,136,0.0,8.0,98,0.06,,,0.30,meteohub,2013-01-16 05:17:00,
2013-01-16 00:23:00,52.5,52.0,29.86,SE,135,0.0,8.0,98,0.07,,,0.31,meteohub,2013-01-16 05:23:00,
2013-01-16 00:28:00,52.5,52.0,29.86,SSE,152,0.0,8.0,98,0.06,,,0.31,meteohub,2013-01-16 05:28:00,
2013-01-16 00:33:00,52.5,52.0,29.86,SE,144,0.0,5.0,98,0.06,,,0.31,meteohub,2013-01-16 05:33:00,
2013-01-16 00:38:00,52.5,52.0,29.85,ENE,78,0.0,5.0,98,0.06,,,0.31,meteohub,2013-01-16 05:38:00,
2013-01-16 00:43:00,52.5,52.0,29.85,SE,125,0.0,6.0,98,0.07,,,0.32,meteohub,2013-01-16 05:43:00,
2013-01-16 00:48:00,52.5,52.0,29.85,SE,144,0.0,8.0,98,0.07,,,0.32,meteohub,2013-01-16 05:48:00,
2013-01-16 00:53:00,52.3,51.8,29.85,North,358,0.0,8.0,98,0.07,,,0.32,meteohub,2013-01-16 05:53:00,
2013-01-16 00:58:00,52.3,51.8,29.85,NNW,341,0.0,8.0,98,0.07,,,0.32,meteohub,2013-01-16 05:58:00,
2013-01-16 01:03:00,52.2,51.6,29.84,SE,142,0.0,5.0,98,0.07,,,0.33,meteohub,2013-01-16 06:03:00,
2013-01-16 01:08:00,52.2,51.6,29.84,North,6,0.0,4.0,98,0.07,,,0.34,meteohub,2013-01-16 06:08:00,
2013-01-16 01:13:00,52.3,51.8,29.85,NW,325,1.0,2.0,98,0.06,,,0.35,meteohub,2013-01-16 06:13:00,
2013-01-16 01:18:00,52.3,51.8,29.85,NNW,348,0.0,4.0,98,0.07,,,0.37,meteohub,2013-01-16 06:18:00,
2013-01-16 01:23:00,52.2,51.6,29.85,SSE,148,0.0,8.0,98,0.08,,,0.39,meteohub,2013-01-16 06:23:00,
2013-01-16 01:28:00,52.2,51.6,29.84,SSE,148,0.0,8.0,98,0.09,,,0.40,meteohub,2013-01-16 06:28:00,
2013-01-16 01:33:00,52.0,51.4,29.84,SE,146,0.0,8.0,98,0.10,,,0.41,meteohub,2013-01-16 06:33:00,
2013-01-16 01:38:00,52.0,51.4,29.84,SE,146,0.0,1.0,98,0.10,,,0.41,meteohub,2013-01-16 06:38:00,
2013-01-16 01:43:00,52.0,51.4,29.84,SE,125,0.0,1.0,98,0.10,,,0.42,meteohub,2013-01-16 06:43:00,
2013-01-16 01:48:00,52.0,51.4,29.85,NE,52,0.0,3.0,98,0.11,,,0.43,meteohub,2013-01-16 06:48:00,
2013-01-16 01:53:00,52.0,51.4,29.84,South,173,0.0,3.0,98,0.12,,,0.44,meteohub,2013-01-16 06:53:00,
2013-01-16 01:58:00,52.0,51.4,29.84,ESE,120,0.0,3.0,98,0.16,,,0.48,meteohub,2013-01-16 06:58:00,
2013-01-16 02:03:00,51.8,51.3,29.84,South,186,0.0,7.0,98,0.16,,,0.49,meteohub,2013-01-16 07:03:00,
2013-01-16 02:08:00,51.6,51.1,29.84,South,183,1.0,7.0,98,0.15,,,0.50,meteohub,2013-01-16 07:08:00,
2013-01-16 02:13:00,51.6,51.1,29.85,ENE,61,0.0,7.0,98,0.15,,,0.51,meteohub,2013-01-16 07:13:00,
2013-01-16 02:18:00,51.6,51.1,29.85,NNE,12,0.0,11.0,98,0.13,,,0.51,meteohub,2013-01-16 07:18:00,
2013-01-16 02:23:00,51.6,51.1,29.84,NNE,12,0.0,11.0,98,0.12,,,0.51,meteohub,2013-01-16 07:23:00,
2013-01-16 02:28:00,51.8,51.3,29.84,East,83,0.0,11.0,98,0.12,,,0.52,meteohub,2013-01-16 07:28:00,
2013-01-16 02:33:00,52.0,51.4,29.84,ENE,67,0.0,2.0,98,0.11,,,0.52,meteohub,2013-01-16 07:33:00,
2013-01-16 02:38:00,52.0,51.4,29.85,NW,322,0.0,2.0,98,0.11,,,0.53,meteohub,2013-01-16 07:38:00,
2013-01-16 02:43:00,52.2,51.6,29.84,NNW,330,2.0,6.0,98,0.11,,,0.54,meteohub,2013-01-16 07:43:00,
2013-01-16 02:48:00,52.3,51.8,29.84,NNW,337,3.0,10.0,98,0.11,,,0.54,meteohub,2013-01-16 07:48:00,
2013-01-16 02:53:00,52.3,51.8,29.84,NNW,339,5.0,10.0,98,0.08,,,0.54,meteohub,2013-01-16 07:53:00,
2013-01-16 02:58:00,52.5,52.0,29.85,ESE,105,1.0,10.0,98,0.06,,,0.54,meteohub,2013-01-16 07:58:00,
2013-01-16 03:03:00,52.5,52.0,29.84,North,355,2.0,12.0,98,0.04,,,0.54,meteohub,2013-01-16 08:03:00,
2013-01-16 03:08:00,52.7,52.2,29.85,North,351,0.0,12.0,98,0.03,,,0.54,meteohub,2013-01-16 08:08:00,
2013-01-16 03:13:00,52.9,52.3,29.84,NW,324,3.0,10.0,98,0.03,,,0.54,meteohub,2013-01-16 08:13:00,
2013-01-16 03:18:00,53.1,52.5,29.84,North,354,1.0,14.0,98,0.03,,,0.54,meteohub,2013-01-16 08:18:00,
2013-01-16 03:23:00,53.2,52.7,29.84,NNW,336,0.0,14.0,98,0.02,,,0.54,meteohub,2013-01-16 08:23:00,
2013-01-16 03:28:00,53.2,52.7,29.84,North,4,0.0,14.0,98,0.02,,,0.54,meteohub,2013-01-16 08:28:00,
2013-01-16 03:34:00,53.2,52.7,29.84,NW,319,6.0,13.0,98,0.01,,,0.54,meteohub,2013-01-16 08:34:00,
2013-01-16 03:39:00,53.4,52.9,29.84,North,349,0.0,11.0,98,0.00,,,0.54,meteohub,2013-01-16 08:39:00,
2013-01-16 03:44:00,53.2,52.3,29.84,NNW,333,4.0,11.0,97,0.00,,,0.54,meteohub,2013-01-16 08:44:00,
2013-01-16 03:49:00,53.2,52.3,29.84,NNW,345,0.0,13.0,97,0.00,,,0.54,meteohub,2013-01-16 08:49:00,
2013-01-16 03:54:00,53.2,52.3,29.83,SE,131,5.0,13.0,97,0.00,,,0.54,meteohub,2013-01-16 08:54:00,
2013-01-16 03:59:00,53.1,52.2,29.83,NW,324,3.0,13.0,97,0.00,,,0.54,meteohub,2013-01-16 08:59:00,
2013-01-16 04:04:00,53.1,52.2,29.83,NNW,345,2.0,8.0,97,0.00,,,0.54,meteohub,2013-01-16 09:04:00,
2013-01-16 04:09:00,52.9,52.0,29.83,SE,131,0.0,8.0,97,0.00,,,0.54,meteohub,2013-01-16 09:09:00,
2013-01-16 04:14:00,52.9,52.0,29.83,ESE,115,0.0,12.0,97,0.00,,,0.54,meteohub,2013-01-16 09:14:00,
2013-01-16 04:19:00,53.1,52.2,29.83,NE,37,0.0,12.0,97,0.00,,,0.54,meteohub,2013-01-16 09:19:00,
2013-01-16 04:24:00,53.1,52.2,29.82,East,85,0.0,12.0,97,0.00,,,0.54,meteohub,2013-01-16 09:24:00,
2013-01-16 04:29:00,53.1,52.2,29.82,North,4,0.0,8.0,97,0.01,,,0.55,meteohub,2013-01-16 09:29:00,
2013-01-16 04:34:00,53.1,52.2,29.82,NNE,31,0.0,8.0,97,0.01,,,0.55,meteohub,2013-01-16 09:34:00,
2013-01-16 04:39:00,53.2,52.3,29.82,NE,35,0.0,10.0,97,0.01,,,0.55,meteohub,2013-01-16 09:39:00,
2013-01-16 04:44:00,53.2,52.3,29.81,NW,318,3.0,10.0,97,0.01,,,0.55,meteohub,2013-01-16 09:44:00,
2013-01-16 04:49:00,53.2,52.3,29.82,ENE,62,8.0,9.0,97,0.01,,,0.55,meteohub,2013-01-16 09:49:00,
2013-01-16 04:54:00,53.4,52.5,29.81,North,358,6.0,10.0,97,0.01,,,0.55,meteohub,2013-01-16 09:54:00,
2013-01-16 04:59:00,53.4,52.5,29.81,SE,144,2.0,14.0,97,0.01,,,0.55,meteohub,2013-01-16 09:59:00,
2013-01-16 05:04:00,53.4,52.5,29.81,SSE,147,0.0,14.0,97,0.01,,,0.55,meteohub,2013-01-16 10:04:00,
2013-01-16 05:09:00,53.4,52.5,29.81,NE,54,0.0,14.0,97,0.01,,,0.55,meteohub,2013-01-16 10:09:00,
2013-01-16 05:14:00,53.6,52.7,29.81,NW,323,1.0,9.0,97,0.02,,,0.56,meteohub,2013-01-16 10:14:00,
2013-01-16 05:19:00,53.6,52.7,29.81,SE,146,3.0,5.0,97,0.02,,,0.56,meteohub,2013-01-16 10:19:00,
2013-01-16 05:24:00,53.6,52.7,29.81,North,4,0.0,10.0,97,0.02,,,0.56,meteohub,2013-01-16 10:24:00,
2013-01-16 05:29:00,53.8,52.9,29.81,SE,131,0.0,10.0,97,0.02,,,0.57,meteohub,2013-01-16 10:29:00,
2013-01-16 05:34:00,53.6,52.7,29.81,North,349,3.0,10.0,97,0.05,,,0.60,meteohub,2013-01-16 10:34:00,
2013-01-16 05:39:00,53.6,52.7,29.81,SE,133,0.0,7.0,97,0.06,,,0.61,meteohub,2013-01-16 10:39:00,
2013-01-16 05:44:00,53.4,52.5,29.81,North,356,0.0,8.0,97,0.07,,,0.62,meteohub,2013-01-16 10:44:00,
2013-01-16 05:49:00,53.4,52.5,29.81,NW,322,0.0,8.0,97,0.08,,,0.63,meteohub,2013-01-16 10:49:00,
2013-01-16 05:54:00,53.4,52.5,29.81,NNW,332,0.0,8.0,97,0.08,,,0.63,meteohub,2013-01-16 10:54:00,
2013-01-16 05:59:00,53.4,52.5,29.81,ENE,64,0.0,9.0,97,0.09,,,0.64,meteohub,2013-01-16 10:59:00,
2013-01-16 06:04:00,53.2,52.3,29.81,ESE,107,5.0,10.0,97,0.12,,,0.65,meteohub,2013-01-16 11:04:00,
2013-01-16 06:09:00,53.2,52.3,29.81,East,96,0.0,10.0,97,0.13,,,0.69,meteohub,2013-01-16 11:09:00,
2013-01-16 06:14:00,53.2,52.3,29.81,North,349,0.0,10.0,97,0.14,,,0.70,meteohub,2013-01-16 11:14:00,
2013-01-16 06:19:00,53.2,52.3,29.81,NNW,333,4.0,9.0,97,0.14,,,0.70,meteohub,2013-01-16 11:19:00,
2013-01-16 06:24:00,53.2,52.3,29.81,NW,320,0.0,9.0,97,0.15,,,0.71,meteohub,2013-01-16 11:24:00,
2013-01-16 06:30:00,53.2,52.3,29.81,NNW,335,0.0,14.0,97,0.14,,,0.73,meteohub,2013-01-16 11:30:00,
2013-01-16 06:35:00,53.2,52.3,29.82,NNE,19,0.0,14.0,97,0.12,,,0.73,meteohub,2013-01-16 11:35:00,
2013-01-16 06:40:00,53.4,52.5,29.83,ESE,104,7.0,14.0,97,0.12,,,0.75,meteohub,2013-01-16 11:40:00,
2013-01-16 06:45:00,53.2,52.3,29.82,North,2,1.0,14.0,97,0.12,,,0.76,meteohub,2013-01-16 11:45:00,
2013-01-16 06:50:00,53.2,52.3,29.83,NE,35,0.0,14.0,97,0.13,,,0.77,meteohub,2013-01-16 11:50:00,
2013-01-16 06:55:00,53.4,52.3,29.83,NW,312,0.0,11.0,96,0.14,,,0.77,meteohub,2013-01-16 11:55:00,
2013-01-16 07:00:00,53.4,52.5,29.83,East,92,2.0,15.0,97,0.10,,,0.77,meteohub,2013-01-16 12:00:00,
2013-01-16 07:05:00,53.6,52.7,29.84,NNW,327,4.0,15.0,97,0.08,,,0.77,meteohub,2013-01-16 12:05:00,
2013-01-16 07:10:00,53.8,52.9,29.84,ENE,64,0.0,15.0,97,0.08,,,0.78,meteohub,2013-01-16 12:10:00,
2013-01-16 07:15:00,53.8,52.9,29.84,NNW,332,0.0,15.0,97,0.08,,,0.78,meteohub,2013-01-16 12:15:00,
2013-01-16 07:20:00,54.0,53.1,29.84,NW,326,4.0,15.0,97,0.07,,,0.78,meteohub,2013-01-16 12:20:00,
2013-01-16 07:25:00,54.0,52.9,29.84,NW,320,0.0,15.0,96,0.06,,,0.79,meteohub,2013-01-16 12:25:00,
2013-01-16 07:30:00,54.0,52.9,29.84,NNW,334,0.0,9.0,96,0.06,,,0.80,meteohub,2013-01-16 12:30:00,
2013-01-16 07:35:00,54.0,52.9,29.85,NW,306,0.0,12.0,96,0.06,,,0.80,meteohub,2013-01-16 12:35:00,
2013-01-16 07:40:00,53.8,52.7,29.85,SE,125,0.0,12.0,96,0.05,,,0.81,meteohub,2013-01-16 12:40:00,
2013-01-16 07:45:00,53.8,52.7,29.85,SE,125,0.0,12.0,96,0.04,,,0.81,meteohub,2013-01-16 12:45:00,
2013-01-16 07:50:00,53.8,52.7,29.84,WNW,300,0.0,5.0,96,0.04,,,0.81,meteohub,2013-01-16 12:50:00,
2013-01-16 07:55:00,53.8,52.9,29.85,WNW,289,0.0,2.0,97,0.04,,,0.81,meteohub,2013-01-16 12:55:00,
2013-01-16 08:00:00,53.8,52.9,29.84,ESE,115,0.0,2.0,97,0.05,,,0.82,meteohub,2013-01-16 13:00:00,
2013-01-16 08:05:00,53.8,52.9,29.85,NNW,346,0.0,7.0,97,0.05,,,0.82,meteohub,2013-01-16 13:05:00,
2013-01-16 08:10:00,54.0,52.9,29.84,NNW,328,0.0,8.0,96,0.04,,,0.82,meteohub,2013-01-16 13:10:00,
2013-01-16 08:15:00,54.1,53.1,29.84,North,9,0.0,12.0,96,0.04,,,0.82,meteohub,2013-01-16 13:15:00,
2013-01-16 08:20:00,54.1,53.1,29.84,North,349,0.0,12.0,96,0.04,,,0.82,meteohub,2013-01-16 13:20:00,
2013-01-16 08:25:00,54.1,53.1,29.84,SE,139,0.0,8.0,96,0.03,,,0.82,meteohub,2013-01-16 13:25:00,
2013-01-16 08:30:00,54.1,53.1,29.85,WNW,286,0.0,8.0,96,0.02,,,0.82,meteohub,2013-01-16 13:30:00,
2013-01-16 08:36:00,54.1,53.1,29.85,SE,125,0.0,5.0,96,0.02,,,0.82,meteohub,2013-01-16 13:36:00,
2013-01-16 08:41:00,54.1,53.1,29.86,NW,309,0.0,5.0,96,0.02,,,0.83,meteohub,2013-01-16 13:41:00,
2013-01-16 08:46:00,54.0,52.9,29.85,WNW,290,10.0,10.0,96,0.02,,,0.83,meteohub,2013-01-16 13:46:00,
2013-01-16 08:51:00,54.1,53.1,29.86,WNW,297,0.0,16.0,96,0.03,,,0.84,meteohub,2013-01-16 13:51:00,
2013-01-16 08:56:00,54.1,53.1,29.86,NNW,333,1.0,16.0,96,0.02,,,0.84,meteohub,2013-01-16 13:56:00,
2013-01-16 09:01:00,54.1,53.1,29.86,WNW,300,8.0,16.0,96,0.03,,,0.85,meteohub,2013-01-16 14:01:00,
2013-01-16 09:06:00,54.1,53.1,29.86,WNW,298,6.0,15.0,96,0.03,,,0.85,meteohub,2013-01-16 14:06:00,
2013-01-16 09:11:00,54.0,52.9,29.86,NW,322,0.0,15.0,96,0.04,,,0.86,meteohub,2013-01-16 14:11:00,
2013-01-16 09:16:00,54.0,52.9,29.86,North,356,5.0,15.0,96,0.04,,,0.86,meteohub,2013-01-16 14:16:00,
2013-01-16 09:21:00,54.0,52.9,29.87,NW,308,12.0,15.0,96,0.04,,,0.86,meteohub,2013-01-16 14:21:00,
2013-01-16 09:26:00,54.0,52.9,29.87,NW,320,5.0,19.0,96,0.04,,,0.86,meteohub,2013-01-16 14:26:00,
2013-01-16 09:31:00,54.0,52.9,29.87,NW,322,0.0,19.0,96,0.04,,,0.86,meteohub,2013-01-16 14:31:00,
2013-01-16 09:36:00,53.8,52.7,29.87,NNW,329,0.0,19.0,96,0.04,,,0.86,meteohub,2013-01-16 14:36:00,
2013-01-16 09:41:00,53.8,52.7,29.87,NW,313,1.0,16.0,96,0.04,,,0.87,meteohub,2013-01-16 14:41:00,
2013-01-16 09:46:00,53.8,52.9,29.87,NW,318,3.0,14.0,97,0.04,,,0.87,meteohub,2013-01-16 14:46:00,
2013-01-16 09:51:00,53.8,52.9,29.88,NW,314,0.0,14.0,97,0.03,,,0.87,meteohub,2013-01-16 14:51:00,
2013-01-16 09:56:00,53.8,52.9,29.87,NW,317,1.0,14.0,97,0.02,,,0.87,meteohub,2013-01-16 14:56:00,
2013-01-16 10:01:00,53.8,52.9,29.87,NW,325,0.0,14.0,97,0.02,,,0.87,meteohub,2013-01-16 15:01:00,
2013-01-16 10:06:00,53.8,52.9,29.88,NW,312,4.0,14.0,97,0.02,,,0.87,meteohub,2013-01-16 15:06:00,
2013-01-16 10:11:00,53.8,52.9,29.88,WNW,298,1.0,13.0,97,0.01,,,0.87,meteohub,2013-01-16 15:11:00,
2013-01-16 10:16:00,53.6,52.7,29.88,NW,308,0.0,10.0,97,0.02,,,0.88,meteohub,2013-01-16 15:16:00,
2013-01-16 10:21:00,53.6,52.7,29.89,WNW,303,0.0,10.0,97,0.02,,,0.88,meteohub,2013-01-16 15:21:00,
2013-01-16 10:26:00,53.4,52.3,29.87,NW,322,2.0,7.0,96,0.02,,,0.88,meteohub,2013-01-16 15:26:00,
2013-01-16 10:31:00,53.4,52.3,29.87,NW,322,0.0,11.0,96,0.02,,,0.88,meteohub,2013-01-16 15:31:00,
2013-01-16 10:36:00,53.2,52.2,29.87,WNW,300,0.0,11.0,96,0.01,,,0.88,meteohub,2013-01-16 15:36:00,
2013-01-16 10:41:00,53.2,52.2,29.87,NW,304,3.0,8.0,96,0.01,,,0.88,meteohub,2013-01-16 15:41:00,
2013-01-16 10:46:00,53.1,52.0,29.87,NW,314,0.0,10.0,96,0.01,,,0.88,meteohub,2013-01-16 15:46:00,
2013-01-16 10:51:00,52.7,51.6,29.87,NNW,347,3.0,10.0,96,0.01,,,0.88,meteohub,2013-01-16 15:51:00,
2013-01-16 10:56:00,52.3,51.3,29.86,WNW,301,0.0,13.0,96,0.01,,,0.88,meteohub,2013-01-16 15:56:00,
2013-01-16 11:01:00,52.0,50.9,29.87,NW,318,0.0,13.0,96,0.01,,,0.88,meteohub,2013-01-16 16:01:00,
2013-01-16 11:06:00,51.8,50.7,29.87,NW,308,0.0,13.0,96,0.01,,,0.88,meteohub,2013-01-16 16:06:00,
2013-01-16 11:11:00,51.8,50.7,29.87,WNW,289,0.0,8.0,96,0.00,,,0.88,meteohub,2013-01-16 16:11:00,
2013-01-16 11:16:00,51.4,49.8,29.87,NW,324,0.0,8.0,94,0.00,,,0.88,meteohub,2013-01-16 16:16:00,
2013-01-16 11:21:00,51.4,49.8,29.87,NW,311,0.0,8.0,94,0.00,,,0.88,meteohub,2013-01-16 16:21:00,
2013-01-16 11:26:00,51.4,50.0,29.87,NW,311,0.0,8.0,95,0.00,,,0.88,meteohub,2013-01-16 16:26:00,
2013-01-16 11:32:00,51.6,50.2,29.87,NW,311,0.0,4.0,95,0.00,,,0.88,meteohub,2013-01-16 16:32:00,
2013-01-16 11:37:00,51.6,50.2,29.86,NW,311,0.0,0.0,95,0.00,,,0.88,meteohub,2013-01-16 16:37:00,
2013-01-16 11:42:00,51.8,50.4,29.86,NW,311,0.0,0.0,95,0.00,,,0.88,meteohub,2013-01-16 16:42:00,
2013-01-16 11:47:00,51.8,50.4,29.86,NW,311,0.0,0.0,95,0.00,,,0.88,meteohub,2013-01-16 16:47:00,
2013-01-16 11:52:00,52.2,51.1,29.86,NW,311,0.0,0.0,96,0.00,,,0.88,meteohub,2013-01-16 16:52:00,
2013-01-16 11:57:00,52.2,50.5,29.85,NNW,327,0.0,0.0,94,0.00,,,0.88,meteohub,2013-01-16 16:57:00,
2013-01-16 12:02:00,52.5,50.2,29.86,NNW,327,0.0,2.0,92,0.00,,,0.88,meteohub,2013-01-16 17:02:00,
2013-01-16 12:07:00,53.1,51.1,29.85,NNW,327,0.0,2.0,93,0.00,,,0.88,meteohub,2013-01-16 17:07:00,
2013-01-16 12:12:00,53.4,51.1,29.85,NNW,327,0.0,1.0,92,0.00,,,0.88,meteohub,2013-01-16 17:12:00,
2013-01-16 12:17:00,53.8,51.8,29.85,NNW,335,0.0,0.0,93,0.00,,,0.88,meteohub,2013-01-16 17:17:00,
2013-01-16 12:22:00,54.1,51.3,29.86,NNW,339,0.0,0.0,90,0.00,,,0.88,meteohub,2013-01-16 17:22:00,
2013-01-16 12:28:00,54.1,49.5,29.85,NNW,329,5.0,0.0,84,0.00,,,0.88,meteohub,2013-01-16 17:28:00,
2013-01-16 12:33:00,54.1,49.5,29.85,NW,325,0.0,12.0,84,0.00,,,0.88,meteohub,2013-01-16 17:33:00,
2013-01-16 12:38:00,54.1,48.4,29.85,NW,313,3.0,12.0,81,0.00,,,0.88,meteohub,2013-01-16 17:38:00,
2013-01-16 12:43:00,54.1,49.1,29.85,NW,318,3.0,12.0,83,0.00,,,0.88,meteohub,2013-01-16 17:43:00,
2013-01-16 12:48:00,54.1,49.1,29.85,WNW,303,0.0,12.0,83,0.00,,,0.88,meteohub,2013-01-16 17:48:00,
2013-01-16 12:53:00,54.9,51.1,29.84,NNW,339,3.0,11.0,87,0.00,,,0.88,meteohub,2013-01-16 17:53:00,
2013-01-16 12:58:00,55.2,50.5,29.85,NW,308,0.0,10.0,84,0.00,,,0.88,meteohub,2013-01-16 17:58:00,
2013-01-16 13:03:00,55.8,50.4,29.83,WNW,295,2.0,10.0,82,0.00,,,0.88,meteohub,2013-01-16 18:03:00,
2013-01-16 13:08:00,55.6,49.1,29.83,NW,318,0.0,9.0,79,0.00,,,0.88,meteohub,2013-01-16 18:08:00,
2013-01-16 13:13:00,55.2,49.5,29.83,NW,310,0.0,10.0,81,0.00,,,0.88,meteohub,2013-01-16 18:13:00,
2013-01-16 13:18:00,55.0,48.6,29.83,NW,319,2.0,11.0,79,0.00,,,0.88,meteohub,2013-01-16 18:18:00,
2013-01-16 13:23:00,55.0,48.9,29.83,WNW,303,0.0,12.0,80,0.00,,,0.88,meteohub,2013-01-16 18:23:00,
2013-01-16 13:28:00,54.9,48.6,29.83,NNW,337,0.0,14.0,79,0.00,,,0.88,meteohub,2013-01-16 18:28:00,
2013-01-16 13:33:00,54.9,48.7,29.83,WNW,301,0.0,14.0,80,0.00,,,0.88,meteohub,2013-01-16 18:33:00,
2013-01-16 13:38:00,54.9,48.6,29.83,WNW,297,0.0,9.0,79,0.00,,,0.88,meteohub,2013-01-16 18:38:00,
2013-01-16 13:44:00,54.9,49.8,29.84,WNW,297,0.0,8.0,83,0.00,,,0.88,meteohub,2013-01-16 18:44:00,
2013-01-16 13:49:00,54.7,49.6,29.84,WNW,297,2.0,8.0,83,0.00,,,0.88,meteohub,2013-01-16 18:49:00,
2013-01-16 13:54:00,54.1,48.0,29.84,NW,317,7.0,8.0,80,0.00,,,0.88,meteohub,2013-01-16 18:54:00,
2013-01-16 13:59:00,53.6,47.8,29.84,WNW,302,0.0,7.0,81,0.00,,,0.88,meteohub,2013-01-16 18:59:00,
2013-01-16 14:04:00,53.2,48.2,29.84,NW,304,0.0,11.0,83,0.00,,,0.88,meteohub,2013-01-16 19:04:00,
2013-01-16 14:09:00,53.1,48.9,29.84,NW,304,2.0,11.0,86,0.00,,,0.88,meteohub,2013-01-16 19:09:00,
2013-01-16 14:14:00,52.3,48.2,29.84,NW,319,1.0,11.0,86,0.00,,,0.88,meteohub,2013-01-16 19:14:00,
2013-01-16 14:19:00,52.0,48.6,29.84,NW,305,0.0,10.0,88,0.00,,,0.88,meteohub,2013-01-16 19:19:00,
2013-01-16 14:24:00,51.4,48.6,29.84,NW,305,0.0,10.0,90,0.01,,,0.89,meteohub,2013-01-16 19:24:00,
2013-01-16 14:29:00,51.3,49.1,29.84,NW,305,0.0,10.0,92,0.01,,,0.89,meteohub,2013-01-16 19:29:00,
2013-01-16 14:34:00,51.1,48.9,29.84,NW,310,2.0,9.0,92,0.01,,,0.89,meteohub,2013-01-16 19:34:00,
2013-01-16 14:39:00,50.5,48.6,29.84,NW,317,2.0,6.0,93,0.01,,,0.89,meteohub,2013-01-16 19:39:00,
2013-01-16 14:44:00,50.2,48.2,29.84,NW,318,2.0,8.0,93,0.02,,,0.90,meteohub,2013-01-16 19:44:00,
2013-01-16 14:49:00,50.0,48.0,29.84,NNW,331,0.0,9.0,93,0.02,,,0.90,meteohub,2013-01-16 19:49:00,
2013-01-16 14:54:00,49.8,48.2,29.83,NW,308,0.0,9.0,94,0.02,,,0.90,meteohub,2013-01-16 19:54:00,
2013-01-16 14:59:00,50.0,48.6,29.83,NW,308,0.0,9.0,95,0.02,,,0.90,meteohub,2013-01-16 19:59:00,
2013-01-16 15:04:00,50.0,48.6,29.83,NW,308,0.0,2.0,95,0.02,,,0.90,meteohub,2013-01-16 20:04:00,
2013-01-16 15:09:00,50.2,48.7,29.83,NW,308,0.0,2.0,95,0.02,,,0.90,meteohub,2013-01-16 20:09:00,
2013-01-16 15:14:00,50.2,48.7,29.83,NW,308,0.0,2.0,95,0.02,,,0.90,meteohub,2013-01-16 20:14:00,
2013-01-16 15:19:00,50.2,48.7,29.84,NW,322,0.0,0.0,95,0.02,,,0.90,meteohub,2013-01-16 20:19:00,
2013-01-16 15:25:00,50.2,48.7,29.83,NW,322,0.0,0.0,95,0.01,,,0.90,meteohub,2013-01-16 20:25:00,
2013-01-16 15:30:00,50.2,48.7,29.84,NW,322,0.0,0.0,95,0.01,,,0.90,meteohub,2013-01-16 20:30:00,
2013-01-16 15:35:00,50.2,48.7,29.84,NW,322,0.0,0.0,95,0.01,,,0.90,meteohub,2013-01-16 20:35:00,
2013-01-16 15:40:00,50.2,48.7,29.83,NW,323,0.0,0.0,95,0.00,,,0.90,meteohub,2013-01-16 20:40:00,
2013-01-16 15:45:00,50.2,48.7,29.83,NW,322,0.0,1.0,95,0.00,,,0.90,meteohub,2013-01-16 20:45:00,
2013-01-16 15:50:00,50.2,48.7,29.83,NW,322,0.0,1.0,95,0.00,,,0.90,meteohub,2013-01-16 20:50:00,
2013-01-16 15:55:00,50.2,48.6,29.84,NW,322,0.0,1.0,94,0.00,,,0.90,meteohub,2013-01-16 20:55:00,
2013-01-16 16:00:00,50.0,48.6,29.84,NW,322,0.0,0.0,95,0.00,,,0.90,meteohub,2013-01-16 21:00:00,
2013-01-16 16:05:00,49.8,48.4,29.84,NW,322,0.0,0.0,95,0.00,,,0.90,meteohub,2013-01-16 21:05:00,
2013-01-16 16:10:00,49.8,48.4,29.84,NW,322,0.0,0.0,95,0.00,,,0.90,meteohub,2013-01-16 21:10:00,
2013-01-16 16:15:00,49.8,48.4,29.84,NW,322,0.0,0.0,95,0.00,,,0.90,meteohub,2013-01-16 21:15:00,
2013-01-16 16:21:00,49.8,48.4,29.84,NW,322,0.0,0.0,95,0.00,,,0.90,meteohub,2013-01-16 21:21:00,
2013-01-16 16:26:00,49.8,48.7,29.84,NW,322,0.0,0.0,96,0.00,,,0.90,meteohub,2013-01-16 21:26:00,
2013-01-16 16:31:00,49.8,48.7,29.84,NW,322,0.0,0.0,96,0.00,,,0.90,meteohub,2013-01-16 21:31:00,
2013-01-16 16:36:00,49.8,48.7,29.84,NW,322,0.0,0.0,96,0.00,,,0.90,meteohub,2013-01-16 21:36:00,
2013-01-16 16:41:00,49.8,48.7,29.85,NW,322,0.0,0.0,96,0.00,,,0.90,meteohub,2013-01-16 21:41:00,
2013-01-16 16:46:00,49.8,48.7,29.84,NW,322,0.0,0.0,96,0.00,,,0.90,meteohub,2013-01-16 21:46:00,
2013-01-16 16:51:00,49.8,48.7,29.85,NW,322,0.0,0.0,96,0.00,,,0.90,meteohub,2013-01-16 21:51:00,
2013-01-16 16:56:00,49.6,48.6,29.85,NW,323,0.0,0.0,96,0.00,,,0.90,meteohub,2013-01-16 21:56:00,
2013-01-16 17:01:00,49.3,48.2,29.85,NW,323,0.0,0.0,96,0.01,,,0.91,meteohub,2013-01-16 22:01:00,
2013-01-16 17:07:00,49.3,48.2,29.86,NW,323,0.0,0.0,96,0.01,,,0.91,meteohub,2013-01-16 22:07:00,
2013-01-16 17:12:00,48.9,47.8,29.86,NW,323,0.0,0.0,96,0.01,,,0.91,meteohub,2013-01-16 22:12:00,
2013-01-16 17:17:00,48.9,47.8,29.86,NW,323,0.0,0.0,96,0.01,,,0.91,meteohub,2013-01-16 22:17:00,
2013-01-16 17:22:00,48.7,47.7,29.85,NW,323,0.0,0.0,96,0.01,,,0.91,meteohub,2013-01-16 22:22:00,
2013-01-16 17:27:00,48.7,47.7,29.86,NW,323,0.0,0.0,96,0.02,,,0.92,meteohub,2013-01-16 22:27:00,
2013-01-16 17:32:00,48.6,47.5,29.86,NW,323,0.0,0.0,96,0.02,,,0.92,meteohub,2013-01-16 22:32:00,
2013-01-16 17:37:00,48.4,47.3,29.86,NW,323,0.0,0.0,96,0.02,,,0.92,meteohub,2013-01-16 22:37:00,
2013-01-16 17:42:00,48.4,47.5,29.86,NW,323,0.0,0.0,97,0.02,,,0.92,meteohub,2013-01-16 22:42:00,
2013-01-16 17:47:00,48.0,47.1,29.86,NW,323,0.0,0.0,97,0.02,,,0.92,meteohub,2013-01-16 22:47:00,
2013-01-16 17:52:00,48.0,46.9,29.86,NW,323,0.0,0.0,96,0.02,,,0.92,meteohub,2013-01-16 22:52:00,
2013-01-16 17:57:00,47.8,46.9,29.86,NW,323,0.0,0.0,97,0.01,,,0.92,meteohub,2013-01-16 22:57:00,
2013-01-16 18:02:00,47.8,46.9,29.86,NW,323,0.0,0.0,97,0.01,,,0.92,meteohub,2013-01-16 23:02:00,
2013-01-16 18:07:00,47.7,46.9,29.86,NW,323,0.0,0.0,97,0.01,,,0.92,meteohub,2013-01-16 23:07:00,
2013-01-16 18:12:00,47.7,46.9,29.86,NW,323,0.0,0.0,97,0.01,,,0.92,meteohub,2013-01-16 23:12:00,
2013-01-16 18:17:00,47.7,46.9,29.86,NW,323,0.0,0.0,97,0.01,,,0.92,meteohub,2013-01-16 23:17:00,
2013-01-16 18:22:00,47.5,46.8,29.86,NW,323,0.0,0.0,97,0.00,,,0.92,meteohub,2013-01-16 23:22:00,
2013-01-16 18:27:00,47.5,46.8,29.86,NW,323,0.0,0.0,97,0.00,,,0.92,meteohub,2013-01-16 23:27:00,
2013-01-16 18:32:00,47.5,46.8,29.87,NW,323,0.0,0.0,97,0.00,,,0.92,meteohub,2013-01-16 23:32:00,
2013-01-16 18:37:00,47.5,46.8,29.87,NW,323,0.0,0.0,97,0.00,,,0.92,meteohub,2013-01-16 23:37:00,
2013-01-16 18:42:00,47.3,46.6,29.88,NW,323,0.0,0.0,97,0.00,,,0.92,meteohub,2013-01-16 23:42:00,
2013-01-16 18:47:00,47.1,46.4,29.88,NW,323,0.0,0.0,97,0.00,,,0.92,meteohub,2013-01-16 23:47:00,
2013-01-16 18:52:00,47.1,46.4,29.89,NW,323,0.0,0.0,97,0.00,,,0.92,meteohub,2013-01-16 23:52:00,
2013-01-16 18:57:00,47.3,46.6,29.88,NW,323,0.0,0.0,97,0.01,,,0.93,meteohub,2013-01-16 23:57:00,
2013-01-16 19:02:00,47.5,46.8,29.88,NW,323,0.0,2.0,97,0.01,,,0.93,meteohub,2013-01-17 00:02:00,
2013-01-16 19:07:00,47.7,46.9,29.88,NW,323,0.0,2.0,97,0.01,,,0.00,meteohub,2013-01-17 00:07:00,
2013-01-16 19:12:00,47.7,46.9,29.88,NW,323,0.0,2.0,97,0.01,,,0.00,meteohub,2013-01-17 00:12:00,
2013-01-16 19:17:00,47.7,46.9,29.87,NW,323,0.0,0.0,97,0.01,,,0.00,meteohub,2013-01-17 00:17:00,
2013-01-16 19:22:00,47.7,46.9,29.87,NW,323,0.0,0.0,97,0.01,,,0.00,meteohub,2013-01-17 00:22:00,
2013-01-16 19:27:00,47.7,46.9,29.87,NW,323,0.0,0.0,97,0.01,,,0.00,meteohub,2013-01-17 00:27:00,
2013-01-16 19:32:00,47.7,46.9,29.87,NW,323,0.0,0.0,97,0.01,,,0.00,meteohub,2013-01-17 00:32:00,
2013-01-16 19:37:00,47.7,46.9,29.87,NW,323,0.0,0.0,97,0.01,,,0.00,meteohub,2013-01-17 00:37:00,
2013-01-16 19:42:00,47.7,46.9,29.87,NW,323,0.0,0.0,97,0.01,,,0.00,meteohub,2013-01-17 00:42:00,
2013-01-16 19:47:00,47.7,46.9,29.88,NW,323,0.0,0.0,97,0.01,,,0.00,meteohub,2013-01-17 00:47:00,
2013-01-16 19:52:00,47.5,46.8,29.88,NW,323,0.0,0.0,97,0.00,,,0.00,meteohub,2013-01-17 00:52:00,
2013-01-16 19:57:00,47.5,46.8,29.88,NW,323,0.0,0.0,97,0.00,,,0.00,meteohub,2013-01-17 00:57:00,
2013-01-16 20:02:00,47.3,46.6,29.88,NW,323,0.0,0.0,97,0.00,,,0.00,meteohub,2013-01-17 01:02:00,
2013-01-16 20:07:00,47.3,46.6,29.87,WNW,300,4.0,4.0,97,0.00,,,0.00,meteohub,2013-01-17 01:07:00,
2013-01-16 20:12:00,47.5,46.8,29.88,WNW,300,0.0,4.0,97,0.01,,,0.01,meteohub,2013-01-17 01:12:00,
2013-01-16 20:17:00,47.7,47.1,29.88,WNW,300,0.0,4.0,98,0.01,,,0.01,meteohub,2013-01-17 01:17:00,
2013-01-16 20:22:00,47.7,46.9,29.88,WNW,300,0.0,4.0,97,0.01,,,0.01,meteohub,2013-01-17 01:22:00,
2013-01-16 20:27:00,47.7,46.9,29.88,WNW,300,0.0,0.0,97,0.01,,,0.01,meteohub,2013-01-17 01:27:00,
2013-01-16 20:32:00,47.8,46.9,29.88,WNW,300,0.0,0.0,97,0.01,,,0.01,meteohub,2013-01-17 01:32:00,
2013-01-16 20:37:00,47.8,46.9,29.88,WNW,300,0.0,0.0,97,0.01,,,0.01,meteohub,2013-01-17 01:37:00,
2013-01-16 20:42:00,47.8,46.9,29.88,WNW,300,0.0,0.0,97,0.01,,,0.01,meteohub,2013-01-17 01:42:00,
2013-01-16 20:47:00,47.7,46.9,29.88,WNW,300,0.0,0.0,97,0.01,,,0.01,meteohub,2013-01-17 01:47:00,
2013-01-16 20:52:00,47.7,46.9,29.88,WNW,300,0.0,0.0,97,0.01,,,0.01,meteohub,2013-01-17 01:52:00,
2013-01-16 20:57:00,47.7,46.9,29.88,WNW,300,0.0,0.0,97,0.01,,,0.01,meteohub,2013-01-17 01:57:00,
2013-01-16 21:02:00,47.7,46.9,29.88,WNW,300,0.0,0.0,97,0.01,,,0.01,meteohub,2013-01-17 02:02:00,
2013-01-16 21:07:00,47.8,46.9,29.89,WNW,300,0.0,0.0,97,0.00,,,0.01,meteohub,2013-01-17 02:07:00,
2013-01-16 21:12:00,47.8,46.9,29.88,WNW,300,0.0,0.0,97,0.01,,,0.02,meteohub,2013-01-17 02:12:00,
2013-01-16 21:17:00,47.8,46.9,29.89,WNW,300,0.0,0.0,97,0.01,,,0.02,meteohub,2013-01-17 02:17:00,
2013-01-16 21:22:00,47.8,46.9,29.89,WNW,300,0.0,0.0,97,0.01,,,0.02,meteohub,2013-01-17 02:22:00,
2013-01-16 21:27:00,47.8,47.3,29.89,WNW,300,0.0,0.0,98,0.01,,,0.02,meteohub,2013-01-17 02:27:00,
2013-01-16 21:32:00,47.8,47.3,29.89,WNW,300,0.0,0.0,98,0.01,,,0.02,meteohub,2013-01-17 02:32:00,
2013-01-16 21:37:00,47.8,47.3,29.90,WNW,300,0.0,0.0,98,0.01,,,0.02,meteohub,2013-01-17 02:37:00,
2013-01-16 21:42:00,47.8,47.3,29.89,WNW,300,0.0,0.0,98,0.02,,,0.03,meteohub,2013-01-17 02:42:00,
2013-01-16 21:47:00,47.8,47.3,29.88,WNW,300,0.0,0.0,98,0.03,,,0.04,meteohub,2013-01-17 02:47:00,
2013-01-16 21:52:00,47.8,47.3,29.88,WNW,300,0.0,0.0,98,0.03,,,0.04,meteohub,2013-01-17 02:52:00,
2013-01-16 21:57:00,47.8,47.3,29.88,WNW,300,0.0,0.0,98,0.04,,,0.05,meteohub,2013-01-17 02:57:00,
2013-01-16 22:02:00,47.8,47.3,29.88,WNW,300,0.0,0.0,98,0.05,,,0.06,meteohub,2013-01-17 03:02:00,
2013-01-16 22:07:00,47.8,46.9,29.88,WNW,300,0.0,0.0,97,0.05,,,0.07,meteohub,2013-01-17 03:07:00,
2013-01-16 22:12:00,47.7,46.9,29.88,WNW,300,0.0,0.0,97,0.05,,,0.07,meteohub,2013-01-17 03:12:00,
2013-01-16 22:17:00,47.5,46.9,29.88,WNW,300,0.0,0.0,98,0.07,,,0.09,meteohub,2013-01-17 03:17:00,
2013-01-16 22:22:00,47.3,46.8,29.87,WNW,300,0.0,0.0,98,0.07,,,0.09,meteohub,2013-01-17 03:22:00,
2013-01-16 22:27:00,47.1,46.4,29.87,WNW,300,0.0,0.0,97,0.09,,,0.11,meteohub,2013-01-17 03:27:00,
2013-01-16 22:31:00,47.1,46.4,29.86,WNW,300,0.0,0.0,97,0.09,,,0.11,meteohub,2013-01-17 03:31:00,
2013-01-16 22:37:00,47.1,46.4,29.86,WNW,300,0.0,0.0,97,0.10,,,0.12,meteohub,2013-01-17 03:37:00,
2013-01-16 22:42:00,47.1,46.4,29.86,WNW,300,0.0,0.0,97,0.09,,,0.12,meteohub,2013-01-17 03:42:00,
2013-01-16 22:47:00,47.1,46.4,29.86,WNW,300,0.0,0.0,97,0.08,,,0.12,meteohub,2013-01-17 03:47:00,
2013-01-16 22:52:00,47.1,46.4,29.86,WNW,300,0.0,0.0,97,0.09,,,0.13,meteohub,2013-01-17 03:52:00,
2013-01-16 22:57:00,47.1,46.4,29.86,WNW,300,0.0,0.0,97,0.08,,,0.13,meteohub,2013-01-17 03:57:00,
2013-01-16 23:02:00,47.1,46.4,29.86,WNW,300,0.0,0.0,97,0.06,,,0.13,meteohub,2013-01-17 04:02:00,
2013-01-16 23:07:00,47.1,46.4,29.87,WNW,300,0.0,0.0,97,0.06,,,0.13,meteohub,2013-01-17 04:07:00,
2013-01-16 23:12:00,46.9,46.2,29.86,WNW,300,0.0,0.0,97,0.06,,,0.13,meteohub,2013-01-17 04:12:00,
2013-01-16 23:17:00,46.9,46.4,29.86,WNW,300,0.0,0.0,98,0.04,,,0.13,meteohub,2013-01-17 04:17:00,
2013-01-16 23:22:00,46.9,46.4,29.86,WNW,300,0.0,0.0,98,0.04,,,0.14,meteohub,2013-01-17 04:22:00,
2013-01-16 23:27:00,46.8,46.2,29.86,WNW,300,0.0,0.0,98,0.03,,,0.14,meteohub,2013-01-17 04:27:00,
2013-01-16 23:32:00,46.8,46.2,29.86,WNW,300,0.0,0.0,98,0.03,,,0.14,meteohub,2013-01-17 04:32:00,
2013-01-16 23:37:00,46.6,45.9,29.85,WNW,300,0.0,0.0,97,0.02,,,0.14,meteohub,2013-01-17 04:37:00,
2013-01-16 23:42:00,46.4,45.7,29.85,WNW,300,0.0,0.0,97,0.02,,,0.14,meteohub,2013-01-17 04:42:00,
2013-01-16 23:47:00,46.2,45.5,29.85,WNW,300,0.0,0.0,97,0.02,,,0.14,meteohub,2013-01-17 04:47:00,
2013-01-16 23:52:00,46.4,45.9,29.85,WNW,300,0.0,0.0,98,0.01,,,0.14,meteohub,2013-01-17 04:52:00,
2013-01-16 23:57:00,46.4,45.9,29.85,WNW,300,0.0,0.0,98,0.01,,,0.14,meteohub,2013-01-17 04:57:00,